Página principal
METAR-TAF:

METAR-TAF

Aeroportos :

Aeroporto Internacional Rei Abdulaziz

Jidá, Arábia Saudita

latitude: 21-42N, longitude: 039-11E, altura: 15 m

Observação actual do tempo

O boletim foi feito há 1 hora e 8 minutos, às 09:00 UTC
Vento 10 kt de sudoeste
Temperatura 36°C
Humidade 45%
Pressão 1002 hPa
Visibilidade 10 km ou mais
sem nuvens abaixo de 1500 metros e sem cumulonimbus

METAR: OEJN 180900Z 22010KT CAVOK 36/22 Q1002 NOSIG

Hora: 13:08 (10:08 UTC)

Previsão

O boletim foi feito há 5 horas e 8 minutos, às 05:00 UTC
Previsão válida de 18 às 06 UTC a 19 às 12 UTC
Vento 6 kt de oes-noroeste com rajadas de 16 kt
Visibilidade 10 km ou mais
Poucas nuvensa uma altura de 4000 ft
Tornando-se
de 18 às 16 UTC a 18 às 18 UTC
Vento 10 kt de norte

TAF: OEJN 180500Z 1806/1912 30006G16KT 9999 FEW040 BECMG 1816/1818 35010KT

Observações e previsões do tempo de mais de 4000 aeroportos (mensagens METAR e TAF).

As estações disponíveis são os pontos amarelos e vermelhos sobre o mapa.

Mova o rato sobre o mapa para ver o nome da estação.

Depois clique no ponto para visualizar as observações e previsões meteorológicas.

Para alterar o mapa : clique nos botões verdes com uma cruz preta para aumentar o zoom; no botão verde com uma pitada de zoom; ou nas setas verdes para mapas adjacentes.


METAR-TAF: